Aviation Digital Data Service (ADDS)

Output produced by TAFs form (1128 UTC 19 January 2018)
found at http://www.aviationweather.gov/adds/tafs/
 
RJFK 191100Z 31007KT CAVOK 06/00 Q1018 RMK A3008
TAF RJFK 191105Z 1912/2018 34007KT 9999 FEW015 
     BECMG 2000/2003 23005KT 
     BECMG 2006/2009 34007KT